sensor_id;sensor_type;location;lat;lon;timestamp;temperature;humidity
43320;DHT22;28914;48.722;9.332;2023-04-06T00:04:48;4.20;54.20
43320;DHT22;28914;48.722;9.332;2023-04-06T00:10:08;4.10;54.60
43320;DHT22;28914;48.722;9.332;2023-04-06T00:15:28;4.10;54.60
43320;DHT22;28914;48.722;9.332;2023-04-06T00:20:47;4.00;54.80
43320;DHT22;28914;48.722;9.332;2023-04-06T00:26:06;4.00;55.00
43320;DHT22;28914;48.722;9.332;2023-04-06T00:31:25;3.90;55.50
43320;DHT22;28914;48.722;9.332;2023-04-06T00:36:45;3.80;55.60
43320;DHT22;28914;48.722;9.332;2023-04-06T00:42:10;3.80;55.40
43320;DHT22;28914;48.722;9.332;2023-04-06T00:47:32;3.70;55.50
43320;DHT22;28914;48.722;9.332;2023-04-06T00:52:52;3.70;55.80
43320;DHT22;28914;48.722;9.332;2023-04-06T00:58:11;3.60;55.80
43320;DHT22;28914;48.722;9.332;2023-04-06T01:03:31;3.60;56.00
43320;DHT22;28914;48.722;9.332;2023-04-06T01:08:50;3.60;56.30
43320;DHT22;28914;48.722;9.332;2023-04-06T01:14:09;3.60;56.60
43320;DHT22;28914;48.722;9.332;2023-04-06T01:19:29;3.60;56.80
43320;DHT22;28914;48.722;9.332;2023-04-06T01:24:49;3.60;56.60
43320;DHT22;28914;48.722;9.332;2023-04-06T01:30:08;3.60;56.50
43320;DHT22;28914;48.722;9.332;2023-04-06T01:35:28;3.60;56.60
43320;DHT22;28914;48.722;9.332;2023-04-06T01:40:47;3.60;56.60
43320;DHT22;28914;48.722;9.332;2023-04-06T01:46:06;3.50;56.80
43320;DHT22;28914;48.722;9.332;2023-04-06T01:51:25;3.50;56.90
43320;DHT22;28914;48.722;9.332;2023-04-06T01:56:44;3.40;57.10
43320;DHT22;28914;48.722;9.332;2023-04-06T02:02:04;3.30;57.10
43320;DHT22;28914;48.722;9.332;2023-04-06T02:07:23;3.20;57.10
43320;DHT22;28914;48.722;9.332;2023-04-06T02:12:42;3.20;57.40
43320;DHT22;28914;48.722;9.332;2023-04-06T02:18:01;3.10;57.40
43320;DHT22;28914;48.722;9.332;2023-04-06T02:23:21;3.10;57.50
43320;DHT22;28914;48.722;9.332;2023-04-06T02:28:40;3.00;57.60
43320;DHT22;28914;48.722;9.332;2023-04-06T02:33:59;3.00;57.80
43320;DHT22;28914;48.722;9.332;2023-04-06T02:39:19;2.90;57.70
43320;DHT22;28914;48.722;9.332;2023-04-06T02:44:38;2.90;57.90
43320;DHT22;28914;48.722;9.332;2023-04-06T02:49:57;2.80;57.90
43320;DHT22;28914;48.722;9.332;2023-04-06T02:55:16;2.80;58.10
43320;DHT22;28914;48.722;9.332;2023-04-06T03:00:36;2.70;58.30
43320;DHT22;28914;48.722;9.332;2023-04-06T03:05:56;2.70;58.40
43320;DHT22;28914;48.722;9.332;2023-04-06T03:11:17;2.60;58.30
43320;DHT22;28914;48.722;9.332;2023-04-06T03:16:36;2.60;58.40
43320;DHT22;28914;48.722;9.332;2023-04-06T03:21:55;2.60;58.40
43320;DHT22;28914;48.722;9.332;2023-04-06T03:27:15;2.60;58.60
43320;DHT22;28914;48.722;9.332;2023-04-06T03:32:34;2.50;58.70
43320;DHT22;28914;48.722;9.332;2023-04-06T03:37:53;2.50;58.90
43320;DHT22;28914;48.722;9.332;2023-04-06T03:43:13;2.40;59.30
43320;DHT22;28914;48.722;9.332;2023-04-06T03:48:32;2.30;59.20
43320;DHT22;28914;48.722;9.332;2023-04-06T03:53:51;2.30;59.30
43320;DHT22;28914;48.722;9.332;2023-04-06T03:59:10;2.30;59.40
43320;DHT22;28914;48.722;9.332;2023-04-06T04:04:29;2.30;59.60
43320;DHT22;28914;48.722;9.332;2023-04-06T04:09:49;2.20;59.60
43320;DHT22;28914;48.722;9.332;2023-04-06T04:15:08;2.10;59.70
43320;DHT22;28914;48.722;9.332;2023-04-06T04:20:27;2.10;59.90
43320;DHT22;28914;48.722;9.332;2023-04-06T04:25:48;2.10;60.10
43320;DHT22;28914;48.722;9.332;2023-04-06T04:31:08;2.00;60.30
43320;DHT22;28914;48.722;9.332;2023-04-06T04:36:27;2.00;60.20
43320;DHT22;28914;48.722;9.332;2023-04-06T04:41:46;2.10;60.40
43320;DHT22;28914;48.722;9.332;2023-04-06T04:47:06;2.00;60.30
43320;DHT22;28914;48.722;9.332;2023-04-06T04:52:25;1.90;60.60
43320;DHT22;28914;48.722;9.332;2023-04-06T04:57:44;1.90;61.00
43320;DHT22;28914;48.722;9.332;2023-04-06T05:03:04;1.90;61.20
43320;DHT22;28914;48.722;9.332;2023-04-06T05:08:24;1.90;61.20
43320;DHT22;28914;48.722;9.332;2023-04-06T05:13:43;1.90;61.70
43320;DHT22;28914;48.722;9.332;2023-04-06T05:19:03;2.00;62.00
43320;DHT22;28914;48.722;9.332;2023-04-06T05:24:22;1.90;62.00
43320;DHT22;28914;48.722;9.332;2023-04-06T05:29:42;2.00;62.30
43320;DHT22;28914;48.722;9.332;2023-04-06T05:35:01;2.00;63.30
43320;DHT22;28914;48.722;9.332;2023-04-06T05:40:20;2.10;64.00
43320;DHT22;28914;48.722;9.332;2023-04-06T05:45:39;2.20;64.40
43320;DHT22;28914;48.722;9.332;2023-04-06T05:50:58;2.50;64.80
43320;DHT22;28914;48.722;9.332;2023-04-06T05:56:18;2.40;65.30
43320;DHT22;28914;48.722;9.332;2023-04-06T06:01:37;2.50;65.10
43320;DHT22;28914;48.722;9.332;2023-04-06T06:06:57;2.70;66.40
43320;DHT22;28914;48.722;9.332;2023-04-06T06:12:16;2.90;66.20
43320;DHT22;28914;48.722;9.332;2023-04-06T06:17:35;3.00;66.40
43320;DHT22;28914;48.722;9.332;2023-04-06T06:22:54;3.20;66.30
43320;DHT22;28914;48.722;9.332;2023-04-06T06:28:13;3.30;66.70
43320;DHT22;28914;48.722;9.332;2023-04-06T06:33:33;3.50;67.10
43320;DHT22;28914;48.722;9.332;2023-04-06T06:38:52;3.70;66.50
43320;DHT22;28914;48.722;9.332;2023-04-06T06:44:11;3.90;67.00
43320;DHT22;28914;48.722;9.332;2023-04-06T06:49:31;4.10;66.90
43320;DHT22;28914;48.722;9.332;2023-04-06T06:54:50;4.40;66.60
43320;DHT22;28914;48.722;9.332;2023-04-06T07:00:10;4.70;66.00
43320;DHT22;28914;48.722;9.332;2023-04-06T07:05:30;5.00;65.70
43320;DHT22;28914;48.722;9.332;2023-04-06T07:10:52;5.30;64.50
43320;DHT22;28914;48.722;9.332;2023-04-06T07:16:12;5.60;64.00
43320;DHT22;28914;48.722;9.332;2023-04-06T07:21:31;6.00;63.50
43320;DHT22;28914;48.722;9.332;2023-04-06T07:26:50;6.50;62.90
43320;DHT22;28914;48.722;9.332;2023-04-06T07:32:10;6.90;62.20
43320;DHT22;28914;48.722;9.332;2023-04-06T07:37:29;7.30;61.10
43320;DHT22;28914;48.722;9.332;2023-04-06T07:42:48;7.60;60.30
43320;DHT22;28914;48.722;9.332;2023-04-06T07:48:08;8.00;59.70
43320;DHT22;28914;48.722;9.332;2023-04-06T07:53:27;8.40;59.20
43320;DHT22;28914;48.722;9.332;2023-04-06T07:58:46;8.90;59.10
43320;DHT22;28914;48.722;9.332;2023-04-06T08:04:05;9.50;58.90
43320;DHT22;28914;48.722;9.332;2023-04-06T08:09:24;10.40;58.60
43320;DHT22;28914;48.722;9.332;2023-04-06T08:14:43;11.90;57.90
43320;DHT22;28914;48.722;9.332;2023-04-06T08:20:02;13.70;56.00
43320;DHT22;28914;48.722;9.332;2023-04-06T08:25:22;15.80;55.20
43320;DHT22;28914;48.722;9.332;2023-04-06T08:30:42;18.00;51.30
43320;DHT22;28914;48.722;9.332;2023-04-06T08:36:09;20.20;49.00
43320;DHT22;28914;48.722;9.332;2023-04-06T08:41:28;22.40;45.50
43320;DHT22;28914;48.722;9.332;2023-04-06T08:46:47;24.30;43.30
43320;DHT22;28914;48.722;9.332;2023-04-06T08:52:07;25.90;38.40
43320;DHT22;28914;48.722;9.332;2023-04-06T08:57:30;27.20;37.00
43320;DHT22;28914;48.722;9.332;2023-04-06T09:02:54;28.50;36.80
43320;DHT22;28914;48.722;9.332;2023-04-06T09:08:14;29.70;34.50
43320;DHT22;28914;48.722;9.332;2023-04-06T09:13:48;30.90;33.30
43320;DHT22;28914;48.722;9.332;2023-04-06T09:19:08;32.20;32.20
43320;DHT22;28914;48.722;9.332;2023-04-06T09:24:28;33.20;31.50
43320;DHT22;28914;48.722;9.332;2023-04-06T09:30:08;34.20;29.60
43320;DHT22;28914;48.722;9.332;2023-04-06T09:35:31;34.90;26.70
43320;DHT22;28914;48.722;9.332;2023-04-06T09:40:51;35.50;28.60
43320;DHT22;28914;48.722;9.332;2023-04-06T09:46:11;36.10;27.50
43320;DHT22;28914;48.722;9.332;2023-04-06T09:51:48;36.70;26.10
43320;DHT22;28914;48.722;9.332;2023-04-06T09:57:25;37.30;25.30
43320;DHT22;28914;48.722;9.332;2023-04-06T10:03:14;37.90;25.30
43320;DHT22;28914;48.722;9.332;2023-04-06T10:08:38;38.60;24.90
43320;DHT22;28914;48.722;9.332;2023-04-06T10:14:02;39.30;23.70
43320;DHT22;28914;48.722;9.332;2023-04-06T10:19:25;39.80;24.30
43320;DHT22;28914;48.722;9.332;2023-04-06T10:24:46;40.10;22.10
43320;DHT22;28914;48.722;9.332;2023-04-06T10:30:06;39.90;19.70
43320;DHT22;28914;48.722;9.332;2023-04-06T10:35:37;39.30;20.30
43320;DHT22;28914;48.722;9.332;2023-04-06T10:41:03;39.00;21.00
43320;DHT22;28914;48.722;9.332;2023-04-06T10:46:27;39.30;19.30
43320;DHT22;28914;48.722;9.332;2023-04-06T10:51:51;39.00;19.10
43320;DHT22;28914;48.722;9.332;2023-04-06T10:57:12;38.90;20.10
43320;DHT22;28914;48.722;9.332;2023-04-06T11:02:32;39.30;21.00
43320;DHT22;28914;48.722;9.332;2023-04-06T11:07:51;39.80;20.40
43320;DHT22;28914;48.722;9.332;2023-04-06T11:13:10;40.20;19.50
43320;DHT22;28914;48.722;9.332;2023-04-06T11:18:29;40.50;20.30
43320;DHT22;28914;48.722;9.332;2023-04-06T11:23:49;40.70;19.00
43320;DHT22;28914;48.722;9.332;2023-04-06T11:29:08;40.80;19.30
43320;DHT22;28914;48.722;9.332;2023-04-06T11:34:29;40.80;18.00
43320;DHT22;28914;48.722;9.332;2023-04-06T11:39:51;40.20;18.00
43320;DHT22;28914;48.722;9.332;2023-04-06T11:45:15;39.30;18.80
43320;DHT22;28914;48.722;9.332;2023-04-06T11:50:35;38.30;18.50
43320;DHT22;28914;48.722;9.332;2023-04-06T11:55:54;36.80;18.00
43320;DHT22;28914;48.722;9.332;2023-04-06T12:01:13;34.50;18.40
43320;DHT22;28914;48.722;9.332;2023-04-06T12:06:32;32.00;19.00
43320;DHT22;28914;48.722;9.332;2023-04-06T12:11:51;29.60;19.30
43320;DHT22;28914;48.722;9.332;2023-04-06T12:17:11;27.70;20.50
43320;DHT22;28914;48.722;9.332;2023-04-06T12:22:30;26.10;21.00
43320;DHT22;28914;48.722;9.332;2023-04-06T12:27:49;25.00;21.90
43320;DHT22;28914;48.722;9.332;2023-04-06T12:33:08;24.30;22.80
43320;DHT22;28914;48.722;9.332;2023-04-06T12:38:27;23.60;23.20
43320;DHT22;28914;48.722;9.332;2023-04-06T12:43:48;23.10;23.40
43320;DHT22;28914;48.722;9.332;2023-04-06T12:49:08;22.70;23.90
43320;DHT22;28914;48.722;9.332;2023-04-06T12:54:27;22.40;24.30
43320;DHT22;28914;48.722;9.332;2023-04-06T12:59:46;22.10;24.20
43320;DHT22;28914;48.722;9.332;2023-04-06T13:05:06;21.80;24.30
43320;DHT22;28914;48.722;9.332;2023-04-06T13:10:25;21.60;24.60
43320;DHT22;28914;48.722;9.332;2023-04-06T13:15:45;21.20;24.40
43320;DHT22;28914;48.722;9.332;2023-04-06T13:21:05;20.80;24.30
43320;DHT22;28914;48.722;9.332;2023-04-06T13:26:25;20.40;24.30
43320;DHT22;28914;48.722;9.332;2023-04-06T13:31:44;20.10;23.90
43320;DHT22;28914;48.722;9.332;2023-04-06T13:37:04;19.80;24.00
43320;DHT22;28914;48.722;9.332;2023-04-06T13:42:23;19.70;24.50
43320;DHT22;28914;48.722;9.332;2023-04-06T13:47:42;19.60;24.90
43320;DHT22;28914;48.722;9.332;2023-04-06T13:53:01;19.60;25.10
43320;DHT22;28914;48.722;9.332;2023-04-06T13:58:21;19.70;25.30
43320;DHT22;28914;48.722;9.332;2023-04-06T14:03:40;19.80;25.30
43320;DHT22;28914;48.722;9.332;2023-04-06T14:09:00;20.00;25.40
43320;DHT22;28914;48.722;9.332;2023-04-06T14:14:20;20.10;25.50
43320;DHT22;28914;48.722;9.332;2023-04-06T14:19:40;20.10;25.00
43320;DHT22;28914;48.722;9.332;2023-04-06T14:24:58;20.10;24.60
43320;DHT22;28914;48.722;9.332;2023-04-06T14:30:18;19.80;24.60
43320;DHT22;28914;48.722;9.332;2023-04-06T14:35:39;19.70;25.10
43320;DHT22;28914;48.722;9.332;2023-04-06T14:40:58;19.70;25.10
43320;DHT22;28914;48.722;9.332;2023-04-06T14:46:18;19.70;25.30
43320;DHT22;28914;48.722;9.332;2023-04-06T14:51:37;19.70;25.40
43320;DHT22;28914;48.722;9.332;2023-04-06T14:56:56;19.70;25.50
43320;DHT22;28914;48.722;9.332;2023-04-06T15:02:16;19.60;25.60
43320;DHT22;28914;48.722;9.332;2023-04-06T15:07:35;19.50;25.50
43320;DHT22;28914;48.722;9.332;2023-04-06T15:12:55;19.30;25.70
43320;DHT22;28914;48.722;9.332;2023-04-06T15:18:14;19.20;26.10
43320;DHT22;28914;48.722;9.332;2023-04-06T15:23:34;19.20;26.20
43320;DHT22;28914;48.722;9.332;2023-04-06T15:28:53;19.20;26.30
43320;DHT22;28914;48.722;9.332;2023-04-06T15:34:12;19.20;26.60
43320;DHT22;28914;48.722;9.332;2023-04-06T15:39:32;19.10;26.70
43320;DHT22;28914;48.722;9.332;2023-04-06T15:44:51;19.00;26.90
43320;DHT22;28914;48.722;9.332;2023-04-06T15:50:11;18.90;27.10
43320;DHT22;28914;48.722;9.332;2023-04-06T15:55:30;18.70;27.00
43320;DHT22;28914;48.722;9.332;2023-04-06T16:00:49;18.70;27.20
43320;DHT22;28914;48.722;9.332;2023-04-06T16:06:09;18.50;27.20
43320;DHT22;28914;48.722;9.332;2023-04-06T16:11:28;18.50;27.40
43320;DHT22;28914;48.722;9.332;2023-04-06T16:16:48;18.40;27.30
43320;DHT22;28914;48.722;9.332;2023-04-06T16:22:08;18.40;27.50
43320;DHT22;28914;48.722;9.332;2023-04-06T16:27:27;18.30;27.50
43320;DHT22;28914;48.722;9.332;2023-04-06T16:32:47;18.30;27.40
43320;DHT22;28914;48.722;9.332;2023-04-06T16:38:09;18.20;27.40
43320;DHT22;28914;48.722;9.332;2023-04-06T16:43:28;18.10;27.80
43320;DHT22;28914;48.722;9.332;2023-04-06T16:48:48;18.00;27.50
43320;DHT22;28914;48.722;9.332;2023-04-06T16:54:07;17.90;27.70
43320;DHT22;28914;48.722;9.332;2023-04-06T16:59:27;17.90;28.10
43320;DHT22;28914;48.722;9.332;2023-04-06T17:04:47;17.80;28.10
43320;DHT22;28914;48.722;9.332;2023-04-06T17:10:06;17.60;28.20
43320;DHT22;28914;48.722;9.332;2023-04-06T17:15:25;17.50;28.40
43320;DHT22;28914;48.722;9.332;2023-04-06T17:20:46;17.30;28.50
43320;DHT22;28914;48.722;9.332;2023-04-06T17:26:07;17.20;28.70
43320;DHT22;28914;48.722;9.332;2023-04-06T17:31:26;17.10;28.90
43320;DHT22;28914;48.722;9.332;2023-04-06T17:36:46;16.90;28.90
43320;DHT22;28914;48.722;9.332;2023-04-06T17:42:05;16.80;29.30
43320;DHT22;28914;48.722;9.332;2023-04-06T17:47:25;16.60;29.40
43320;DHT22;28914;48.722;9.332;2023-04-06T17:52:50;16.40;29.70
43320;DHT22;28914;48.722;9.332;2023-04-06T17:58:09;16.30;30.20
43320;DHT22;28914;48.722;9.332;2023-04-06T18:03:28;16.10;30.90
43320;DHT22;28914;48.722;9.332;2023-04-06T18:08:48;15.90;30.90
43320;DHT22;28914;48.722;9.332;2023-04-06T18:14:07;15.80;31.50
43320;DHT22;28914;48.722;9.332;2023-04-06T18:19:27;15.70;31.30
43320;DHT22;28914;48.722;9.332;2023-04-06T18:24:46;15.60;31.30
43320;DHT22;28914;48.722;9.332;2023-04-06T18:30:06;15.50;31.40
43320;DHT22;28914;48.722;9.332;2023-04-06T18:35:25;15.40;31.40
43320;DHT22;28914;48.722;9.332;2023-04-06T18:40:44;15.30;31.70
43320;DHT22;28914;48.722;9.332;2023-04-06T18:46:09;15.30;32.10
43320;DHT22;28914;48.722;9.332;2023-04-06T18:51:29;15.20;32.40
43320;DHT22;28914;48.722;9.332;2023-04-06T18:56:49;15.20;32.60
43320;DHT22;28914;48.722;9.332;2023-04-06T19:02:08;15.10;32.80
43320;DHT22;28914;48.722;9.332;2023-04-06T19:07:27;15.10;32.90
43320;DHT22;28914;48.722;9.332;2023-04-06T19:12:47;15.00;33.20
43320;DHT22;28914;48.722;9.332;2023-04-06T19:18:07;14.90;33.80
43320;DHT22;28914;48.722;9.332;2023-04-06T19:23:26;14.90;34.40
43320;DHT22;28914;48.722;9.332;2023-04-06T19:28:46;14.80;34.80
43320;DHT22;28914;48.722;9.332;2023-04-06T19:34:05;14.70;35.20
43320;DHT22;28914;48.722;9.332;2023-04-06T19:39:26;14.70;35.70
43320;DHT22;28914;48.722;9.332;2023-04-06T19:44:45;14.60;36.00
43320;DHT22;28914;48.722;9.332;2023-04-06T19:50:04;14.50;36.60
43320;DHT22;28914;48.722;9.332;2023-04-06T19:55:24;14.40;36.80
43320;DHT22;28914;48.722;9.332;2023-04-06T20:00:43;14.30;36.50
43320;DHT22;28914;48.722;9.332;2023-04-06T20:06:02;14.30;36.00
43320;DHT22;28914;48.722;9.332;2023-04-06T20:11:22;14.30;36.50
43320;DHT22;28914;48.722;9.332;2023-04-06T20:16:41;14.20;36.70
43320;DHT22;28914;48.722;9.332;2023-04-06T20:22:00;14.20;36.90
43320;DHT22;28914;48.722;9.332;2023-04-06T20:27:21;14.20;37.40
43320;DHT22;28914;48.722;9.332;2023-04-06T20:32:41;14.10;37.20
43320;DHT22;28914;48.722;9.332;2023-04-06T20:38:00;14.10;37.80
43320;DHT22;28914;48.722;9.332;2023-04-06T20:43:19;14.10;37.90
43320;DHT22;28914;48.722;9.332;2023-04-06T20:48:43;14.10;38.30
43320;DHT22;28914;48.722;9.332;2023-04-06T20:54:03;14.00;38.70
43320;DHT22;28914;48.722;9.332;2023-04-06T20:59:22;14.10;38.80
43320;DHT22;28914;48.722;9.332;2023-04-06T21:04:42;14.00;39.30
43320;DHT22;28914;48.722;9.332;2023-04-06T21:10:02;14.00;39.60
43320;DHT22;28914;48.722;9.332;2023-04-06T21:15:23;13.90;40.40
43320;DHT22;28914;48.722;9.332;2023-04-06T21:20:43;13.90;41.00
43320;DHT22;28914;48.722;9.332;2023-04-06T21:26:02;13.80;40.70
43320;DHT22;28914;48.722;9.332;2023-04-06T21:31:21;13.80;43.40
43320;DHT22;28914;48.722;9.332;2023-04-06T21:36:40;13.70;43.40
43320;DHT22;28914;48.722;9.332;2023-04-06T21:42:00;13.60;44.10
43320;DHT22;28914;48.722;9.332;2023-04-06T21:47:19;13.50;43.70
43320;DHT22;28914;48.722;9.332;2023-04-06T21:52:38;13.50;43.70
43320;DHT22;28914;48.722;9.332;2023-04-06T21:57:57;13.40;45.60
43320;DHT22;28914;48.722;9.332;2023-04-06T22:03:17;13.30;45.50
43320;DHT22;28914;48.722;9.332;2023-04-06T22:08:36;13.20;45.50
43320;DHT22;28914;48.722;9.332;2023-04-06T22:13:55;13.20;46.00
43320;DHT22;28914;48.722;9.332;2023-04-06T22:19:15;13.10;47.10
43320;DHT22;28914;48.722;9.332;2023-04-06T22:24:34;13.00;47.70
43320;DHT22;28914;48.722;9.332;2023-04-06T22:29:53;12.90;49.30
43320;DHT22;28914;48.722;9.332;2023-04-06T22:35:12;12.80;50.10
43320;DHT22;28914;48.722;9.332;2023-04-06T22:40:31;12.60;50.80
43320;DHT22;28914;48.722;9.332;2023-04-06T22:45:50;12.50;52.00
43320;DHT22;28914;48.722;9.332;2023-04-06T22:51:10;12.40;51.50
43320;DHT22;28914;48.722;9.332;2023-04-06T22:56:29;12.30;53.40
43320;DHT22;28914;48.722;9.332;2023-04-06T23:01:48;12.20;52.80
43320;DHT22;28914;48.722;9.332;2023-04-06T23:07:07;12.10;52.60
43320;DHT22;28914;48.722;9.332;2023-04-06T23:12:26;12.10;53.00
43320;DHT22;28914;48.722;9.332;2023-04-06T23:17:46;12.10;55.40
43320;DHT22;28914;48.722;9.332;2023-04-06T23:23:05;11.90;56.90
43320;DHT22;28914;48.722;9.332;2023-04-06T23:28:24;11.80;55.90
43320;DHT22;28914;48.722;9.332;2023-04-06T23:33:44;11.70;56.10
43320;DHT22;28914;48.722;9.332;2023-04-06T23:39:03;11.70;56.90
43320;DHT22;28914;48.722;9.332;2023-04-06T23:44:22;11.60;56.50
43320;DHT22;28914;48.722;9.332;2023-04-06T23:49:42;11.60;57.40
43320;DHT22;28914;48.722;9.332;2023-04-06T23:55:01;11.50;58.20
